createdAt,value
2018-09-11T00:01:47.882Z,6.13
2018-09-11T00:07:52.569Z,5.57
2018-09-11T00:13:57.507Z,5.50
2018-09-11T00:20:02.229Z,6.10
2018-09-11T00:26:07.041Z,5.70
2018-09-11T00:32:12.423Z,5.57
2018-09-11T00:38:17.320Z,7.73
2018-09-11T00:44:22.093Z,5.90
2018-09-11T00:50:27.313Z,6.03
2018-09-11T00:56:32.089Z,6.57
2018-09-11T01:02:36.874Z,6.30
2018-09-11T01:08:41.896Z,6.10
2018-09-11T01:14:47.237Z,5.90
2018-09-11T01:20:52.283Z,5.87
2018-09-11T01:26:57.032Z,7.10
2018-09-11T01:33:01.863Z,5.07
2018-09-11T01:39:10.907Z,6.03
2018-09-11T01:45:15.994Z,5.17
2018-09-11T01:51:20.663Z,5.70
2018-09-11T01:57:25.435Z,6.13
2018-09-11T02:03:30.333Z,6.80
2018-09-11T02:09:35.118Z,6.67
2018-09-11T02:15:40.083Z,5.83
2018-09-11T02:21:45.218Z,5.80
2018-09-11T02:27:51.449Z,5.93
2018-09-11T02:33:56.331Z,5.70
2018-09-11T02:40:01.226Z,5.10
2018-09-11T02:46:06.105Z,5.13
2018-09-11T02:52:11.168Z,4.70
2018-09-11T02:58:16.196Z,5.30
2018-09-11T03:04:20.867Z,5.00
2018-09-11T03:10:25.541Z,4.23
2018-09-11T03:16:30.528Z,5.10
2018-09-11T03:22:35.299Z,4.90
2018-09-11T03:28:40.469Z,4.80
2018-09-11T03:34:45.301Z,5.10
2018-09-11T03:40:50.110Z,5.07
2018-09-11T03:46:54.860Z,5.13
2018-09-11T03:52:59.646Z,5.20
2018-09-11T03:59:04.386Z,5.80
2018-09-11T04:05:09.904Z,5.20
2018-09-11T04:11:14.874Z,5.87
2018-09-11T04:17:19.723Z,5.93
2018-09-11T04:23:24.616Z,6.20
2018-09-11T04:29:29.322Z,7.20
2018-09-11T04:35:34.071Z,6.70
2018-09-11T04:41:39.082Z,6.30
2018-09-11T04:47:43.988Z,6.10
2018-09-11T04:53:48.700Z,5.90
2018-09-11T04:59:53.545Z,6.47
2018-09-11T05:05:58.500Z,5.03
2018-09-11T05:12:03.281Z,6.03
2018-09-11T05:18:08.108Z,5.83
2018-09-11T05:24:13.488Z,6.10
2018-09-11T05:30:18.334Z,6.10
2018-09-11T05:36:23.172Z,5.80
2018-09-11T05:42:28.607Z,5.60
2018-09-11T05:48:33.419Z,5.00
2018-09-11T05:54:38.788Z,5.10
2018-09-11T06:00:43.753Z,5.53
2018-09-11T06:06:48.435Z,4.77
2018-09-11T06:12:53.168Z,4.37
2018-09-11T06:18:58.045Z,4.23
2018-09-11T06:25:02.953Z,3.83
2018-09-11T06:31:08.131Z,3.30
2018-09-11T06:37:13.068Z,3.70
2018-09-11T06:43:17.967Z,3.60
2018-09-11T06:49:22.719Z,2.97
2018-09-11T06:55:27.437Z,3.20
2018-09-11T07:01:32.158Z,2.90
2018-09-11T07:07:36.954Z,2.97
2018-09-11T07:13:41.872Z,2.50
2018-09-11T07:19:46.914Z,3.10
2018-09-11T07:25:51.675Z,3.03
2018-09-11T07:31:56.483Z,2.67
2018-09-11T07:38:01.216Z,3.10
2018-09-11T07:44:06.268Z,3.70
2018-09-11T07:50:12.627Z,3.30
2018-09-11T07:56:17.380Z,3.27
2018-09-11T08:02:22.200Z,3.07
2018-09-11T08:08:27.159Z,2.80
2018-09-11T08:14:31.853Z,2.50
2018-09-11T08:20:36.615Z,2.90
2018-09-11T08:26:41.346Z,2.90
2018-09-11T08:32:46.253Z,2.60
2018-09-11T08:38:51.103Z,2.80
2018-09-11T08:44:55.792Z,3.20
2018-09-11T08:51:00.502Z,3.20
2018-09-11T08:57:05.210Z,2.80
2018-09-11T09:03:09.997Z,3.00
2018-09-11T09:09:14.769Z,3.40
2018-09-11T09:15:19.548Z,3.40
2018-09-11T09:21:24.298Z,3.23
2018-09-11T09:27:29.461Z,2.90
2018-09-11T09:33:34.190Z,3.67
2018-09-11T09:39:39.066Z,3.50
2018-09-11T09:45:44.369Z,3.20
2018-09-11T09:51:49.063Z,4.20
2018-09-11T09:57:53.868Z,3.90
2018-09-11T10:03:58.678Z,4.17
2018-09-11T10:10:03.654Z,4.00
2018-09-11T10:16:08.358Z,3.93
2018-09-11T10:22:13.275Z,3.83
2018-09-11T10:28:18.172Z,3.70
2018-09-11T10:34:23.397Z,3.30
2018-09-11T10:40:28.217Z,4.43
2018-09-11T10:46:33.333Z,3.60
2018-09-11T10:52:38.274Z,3.90
2018-09-11T10:58:43.175Z,3.53
2018-09-11T11:04:48.536Z,3.47
2018-09-11T11:10:53.458Z,3.20
2018-09-11T11:16:58.433Z,3.90
2018-09-11T11:23:03.207Z,3.30
2018-09-11T11:29:08.475Z,3.23
2018-09-11T11:35:13.379Z,2.53
2018-09-11T11:41:18.699Z,2.43
2018-09-11T11:47:23.451Z,2.80
2018-09-11T11:53:28.322Z,2.37
2018-09-11T11:59:33.014Z,2.30
2018-09-11T12:05:37.909Z,2.07
2018-09-11T12:11:43.624Z,1.70
2018-09-11T12:17:48.637Z,1.70
2018-09-11T12:23:53.383Z,1.60
2018-09-11T12:29:58.500Z,2.00
2018-09-11T12:36:03.593Z,1.60
2018-09-11T12:42:08.488Z,1.90
2018-09-11T12:48:13.973Z,1.60
2018-09-11T12:54:18.765Z,1.60
2018-09-11T13:00:23.882Z,1.90
2018-09-11T13:06:28.655Z,1.60
2018-09-11T13:12:33.658Z,1.63
2018-09-11T13:18:39.550Z,1.30
2018-09-11T13:24:44.916Z,1.90
2018-09-11T13:30:49.725Z,1.77
2018-09-11T13:36:54.576Z,1.50
2018-09-11T13:42:59.431Z,1.50
2018-09-11T13:49:04.291Z,1.70
2018-09-11T13:55:09.215Z,1.73
2018-09-11T14:01:13.966Z,1.73
2018-09-11T14:07:19.127Z,1.83
2018-09-11T14:13:23.931Z,1.60
2018-09-11T14:19:28.711Z,1.30
2018-09-11T14:25:33.515Z,1.60
2018-09-11T14:31:38.345Z,1.47
2018-09-11T14:37:43.590Z,1.57
2018-09-11T14:43:48.676Z,1.60
2018-09-11T14:49:56.297Z,1.90
2018-09-11T14:56:01.288Z,1.67
2018-09-11T15:02:06.155Z,1.17
2018-09-11T15:08:11.039Z,1.33
2018-09-11T15:14:15.864Z,1.40
2018-09-11T15:20:20.792Z,1.50
2018-09-11T15:26:25.547Z,1.53
2018-09-11T15:32:30.331Z,1.17
2018-09-11T15:38:35.120Z,1.50
2018-09-11T15:44:39.941Z,1.57
2018-09-11T15:50:44.814Z,1.80
2018-09-11T15:56:49.794Z,1.83
2018-09-11T16:02:54.541Z,1.40
2018-09-11T16:08:59.442Z,1.60
2018-09-11T16:15:04.469Z,1.50
2018-09-11T16:21:09.369Z,1.90
2018-09-11T16:27:14.805Z,1.63
2018-09-11T16:33:19.896Z,1.33
2018-09-11T16:39:24.844Z,1.80
2018-09-11T16:45:29.553Z,1.57
2018-09-11T16:51:34.245Z,1.60
2018-09-11T16:57:39.080Z,1.80
2018-09-11T17:03:43.993Z,1.70
2018-09-11T17:09:48.705Z,1.87
2018-09-11T17:15:53.718Z,2.00
2018-09-11T17:21:58.452Z,2.83
2018-09-11T17:28:03.306Z,2.00
2018-09-11T17:34:08.474Z,2.23
2018-09-11T17:40:13.819Z,1.80
2018-09-11T17:46:18.599Z,2.30
2018-09-11T17:52:23.732Z,2.13
2018-09-11T17:58:28.697Z,2.37
2018-09-11T18:04:33.597Z,2.33
2018-09-11T18:10:38.406Z,3.30
2018-09-11T18:16:43.502Z,3.13
2018-09-11T18:22:49.291Z,2.53
2018-09-11T18:28:54.110Z,3.00
2018-09-11T18:34:58.925Z,2.40
2018-09-11T18:41:03.730Z,2.50
2018-09-11T18:47:08.563Z,2.03
2018-09-11T18:53:14.424Z,2.40
2018-09-11T18:59:19.555Z,2.27
2018-09-11T19:05:25.311Z,2.60
2018-09-11T19:11:30.078Z,2.60
2018-09-11T19:17:34.882Z,2.43
2018-09-11T19:23:39.796Z,2.27
2018-09-11T19:29:45.132Z,2.73
2018-09-11T19:35:49.901Z,2.10
2018-09-11T19:41:54.788Z,2.17
2018-09-11T19:47:59.577Z,1.90
2018-09-11T19:54:04.482Z,3.00
2018-09-11T20:00:09.626Z,2.23
2018-09-11T20:06:15.332Z,2.20
2018-09-11T20:12:20.619Z,2.50
2018-09-11T20:18:25.591Z,2.10
2018-09-11T20:24:30.649Z,2.00
2018-09-11T20:30:35.528Z,2.47
2018-09-11T20:36:41.627Z,2.07
2018-09-11T20:42:46.635Z,2.87
2018-09-11T20:48:51.448Z,2.70
2018-09-11T20:54:56.278Z,2.50
2018-09-11T21:01:01.472Z,2.50
2018-09-11T21:07:06.235Z,2.10
2018-09-11T21:13:11.376Z,2.50
2018-09-11T21:19:16.976Z,2.20
2018-09-11T21:25:21.847Z,2.40
2018-09-11T21:31:27.067Z,2.27
2018-09-11T21:37:31.959Z,2.60
2018-09-11T21:43:36.916Z,2.50
2018-09-11T21:49:41.945Z,2.33
2018-09-11T21:55:46.683Z,2.10
2018-09-11T22:01:52.874Z,2.97
2018-09-11T22:07:57.677Z,2.70
2018-09-11T22:14:02.534Z,2.60
2018-09-11T22:20:08.007Z,2.60
2018-09-11T22:26:15.387Z,2.70
2018-09-11T22:32:20.577Z,2.07
2018-09-11T22:38:25.486Z,2.17
2018-09-11T22:44:30.323Z,2.27
2018-09-11T22:50:35.366Z,2.23
2018-09-11T22:56:41.421Z,2.47
2018-09-11T23:02:46.528Z,2.80
2018-09-11T23:08:51.368Z,2.83
2018-09-11T23:14:56.323Z,2.53
2018-09-11T23:21:01.156Z,2.43
2018-09-11T23:27:06.034Z,2.50
2018-09-11T23:33:11.071Z,2.80
2018-09-11T23:39:16.186Z,2.53
2018-09-11T23:45:20.970Z,2.30
2018-09-11T23:51:26.105Z,3.10
2018-09-11T23:57:30.981Z,2.70
